createdAt,value
2022-11-27T00:02:28.782Z,67.81
2022-11-27T00:07:33.483Z,67.38
2022-11-27T00:12:38.220Z,67.98
2022-11-27T00:17:41.954Z,67.56
2022-11-27T00:22:45.294Z,67.54
2022-11-27T00:27:49.408Z,67.71
2022-11-27T00:32:53.028Z,67.78
2022-11-27T00:37:56.279Z,67.54
2022-11-27T00:42:59.647Z,67.71
2022-11-27T00:48:03.200Z,68.08
2022-11-27T00:53:06.585Z,67.67
2022-11-27T00:58:09.654Z,68.23
2022-11-27T01:03:12.735Z,68.05
2022-11-27T01:08:16.201Z,67.87
2022-11-27T01:13:20.410Z,68.08
2022-11-27T01:18:24.422Z,68.10
2022-11-27T01:23:27.612Z,68.15
2022-11-27T01:28:32.391Z,67.96
2022-11-27T01:33:36.165Z,67.85
2022-11-27T01:38:39.675Z,67.99
2022-11-27T01:44:00.570Z,67.78
2022-11-27T01:49:29.525Z,67.84
2022-11-27T01:54:43.665Z,68.00
2022-11-27T01:59:49.374Z,68.33
2022-11-27T02:04:53.879Z,68.24
2022-11-27T02:09:57.286Z,67.75
2022-11-27T02:15:18.624Z,67.51
2022-11-27T02:20:41.539Z,67.50
2022-11-27T02:26:05.805Z,67.26
2022-11-27T02:31:26.073Z,67.28
2022-11-27T02:36:32.024Z,67.39
2022-11-27T02:41:49.708Z,67.46
2022-11-27T02:46:55.289Z,67.13
2022-11-27T02:52:01.360Z,67.37
2022-11-27T02:57:06.739Z,67.19
2022-11-27T03:02:15.342Z,67.28
2022-11-27T03:07:27.077Z,66.99
2022-11-27T03:12:30.668Z,67.55
2022-11-27T03:17:53.205Z,67.47
2022-11-27T03:22:57.976Z,67.96
2022-11-27T03:28:08.275Z,68.41
2022-11-27T03:33:12.115Z,68.47
2022-11-27T03:38:16.010Z,68.81
2022-11-27T03:43:24.998Z,69.01
2022-11-27T03:48:30.998Z,68.80
2022-11-27T03:53:40.608Z,68.95
2022-11-27T03:58:49.997Z,69.25
2022-11-27T04:03:54.004Z,69.18
2022-11-27T04:08:57.508Z,69.72
2022-11-27T04:14:00.872Z,69.63
2022-11-27T04:19:04.035Z,69.86
2022-11-27T04:24:07.794Z,69.83
2022-11-27T04:29:11.263Z,70.25
2022-11-27T04:34:14.611Z,70.55
2022-11-27T04:39:17.727Z,70.32
2022-11-27T04:44:20.655Z,70.20
2022-11-27T04:49:23.846Z,70.06
2022-11-27T04:54:27.281Z,70.39
2022-11-27T04:59:30.732Z,70.54
2022-11-27T05:04:33.946Z,70.42
2022-11-27T05:09:37.273Z,70.65
2022-11-27T05:14:41.359Z,70.48
2022-11-27T05:19:45.999Z,70.44
2022-11-27T05:24:50.291Z,70.39
2022-11-27T05:29:53.485Z,70.34
2022-11-27T05:34:56.436Z,70.41
2022-11-27T05:40:00.527Z,70.44
2022-11-27T05:45:06.880Z,70.25
2022-11-27T05:50:10.610Z,70.42
2022-11-27T05:55:14.130Z,69.84
2022-11-27T06:00:18.617Z,69.70
2022-11-27T06:05:21.872Z,70.04
2022-11-27T06:10:25.146Z,69.90
2022-11-27T06:15:28.753Z,69.42
2022-11-27T06:20:32.421Z,69.49
2022-11-27T06:25:36.093Z,69.36
2022-11-27T06:30:39.398Z,68.70
2022-11-27T06:35:42.322Z,69.10
2022-11-27T06:40:45.459Z,68.84
2022-11-27T06:45:56.766Z,68.61
2022-11-27T06:51:04.896Z,68.21
2022-11-27T06:56:15.272Z,67.86
2022-11-27T07:01:20.086Z,67.65
2022-11-27T07:06:28.924Z,67.18
2022-11-27T07:11:33.129Z,66.64
2022-11-27T07:16:37.440Z,66.30
2022-11-27T07:21:40.910Z,66.23
2022-11-27T07:26:44.433Z,66.83
2022-11-27T07:31:47.964Z,66.55
2022-11-27T07:36:52.813Z,66.08
2022-11-27T07:42:00.028Z,65.77
2022-11-27T07:47:06.284Z,64.79
2022-11-27T07:52:09.535Z,64.91
2022-11-27T07:57:12.822Z,64.80
2022-11-27T08:02:16.545Z,64.39
2022-11-27T08:07:20.080Z,64.27
2022-11-27T08:12:24.640Z,64.49
2022-11-27T08:17:28.204Z,64.31
2022-11-27T08:22:31.620Z,64.04
2022-11-27T08:27:34.930Z,63.54
2022-11-27T08:32:41.674Z,63.11
2022-11-27T08:37:47.041Z,62.66
2022-11-27T08:42:50.607Z,62.46
2022-11-27T08:47:55.093Z,61.83
2022-11-27T08:52:58.570Z,61.41
2022-11-27T08:58:02.259Z,60.89
2022-11-27T09:03:06.402Z,60.84
2022-11-27T09:08:09.746Z,60.57
2022-11-27T09:13:12.936Z,60.25
2022-11-27T09:18:16.264Z,60.06
2022-11-27T09:23:20.790Z,59.52
2022-11-27T09:28:28.207Z,59.38
2022-11-27T09:33:38.588Z,58.78
2022-11-27T09:38:42.213Z,58.93
2022-11-27T09:43:55.236Z,58.99
2022-11-27T09:49:00.958Z,58.62
2022-11-27T09:54:27.180Z,58.51
2022-11-27T09:59:45.690Z,58.33
2022-11-27T10:05:12.942Z,58.15
2022-11-27T10:10:18.098Z,58.18
2022-11-27T10:15:37.593Z,58.19
2022-11-27T10:20:43.327Z,57.34
2022-11-27T10:25:55.128Z,57.85
2022-11-27T10:31:12.928Z,57.98
2022-11-27T10:36:24.588Z,58.21
2022-11-27T10:42:03.254Z,58.24
2022-11-27T10:47:10.875Z,58.23
2022-11-27T10:52:17.035Z,58.16
2022-11-27T10:57:47.569Z,58.10
2022-11-27T11:03:03.212Z,58.14
2022-11-27T11:08:16.556Z,57.80
2022-11-27T11:13:24.457Z,57.89
2022-11-27T11:18:41.776Z,58.02
2022-11-27T11:23:57.722Z,57.94
2022-11-27T11:29:05.212Z,57.55
2022-11-27T11:34:30.001Z,57.87
2022-11-27T11:39:45.808Z,57.53
2022-11-27T11:44:55.401Z,57.65
2022-11-27T11:49:59.305Z,57.75
2022-11-27T11:55:26.270Z,57.80
2022-11-27T12:00:58.412Z,57.78
2022-11-27T12:06:25.814Z,57.67
2022-11-27T12:11:57.930Z,58.04
2022-11-27T12:17:21.580Z,57.84
2022-11-27T12:22:41.200Z,57.79
2022-11-27T12:28:02.979Z,57.90
2022-11-27T12:33:24.176Z,58.11
2022-11-27T12:39:05.665Z,58.10
2022-11-27T12:44:22.935Z,57.96
2022-11-27T12:49:43.973Z,58.08
2022-11-27T12:54:58.192Z,57.84
2022-11-27T13:00:24.980Z,58.20
2022-11-27T13:05:42.109Z,58.48
2022-11-27T13:10:55.979Z,58.20
2022-11-27T13:16:10.405Z,58.58
2022-11-27T13:21:18.853Z,58.63
2022-11-27T13:26:35.429Z,58.40
2022-11-27T13:31:39.363Z,58.69
2022-11-27T13:36:46.836Z,58.82
2022-11-27T13:42:11.757Z,58.97
2022-11-27T13:47:19.611Z,58.91
2022-11-27T13:52:23.294Z,59.06
2022-11-27T13:57:28.355Z,59.22
2022-11-27T14:02:47.413Z,59.27
2022-11-27T14:07:56.433Z,59.36
2022-11-27T14:13:04.038Z,59.29
2022-11-27T14:18:21.223Z,59.17
2022-11-27T14:23:50.270Z,59.08
2022-11-27T14:28:56.467Z,59.14
2022-11-27T14:34:14.857Z,58.86
2022-11-27T14:39:30.180Z,59.11
2022-11-27T14:44:34.076Z,58.66
2022-11-27T14:49:37.512Z,58.71
2022-11-27T14:54:42.396Z,58.72
2022-11-27T14:59:45.762Z,58.84
2022-11-27T15:04:49.211Z,58.64
2022-11-27T15:09:59.221Z,58.58
2022-11-27T15:15:09.993Z,58.66
2022-11-27T15:20:23.883Z,58.41
2022-11-27T15:25:40.198Z,58.43
2022-11-27T15:30:46.922Z,58.23
2022-11-27T15:35:53.900Z,58.41
2022-11-27T15:41:00.576Z,58.44
2022-11-27T15:46:07.414Z,58.42
2022-11-27T15:51:10.772Z,58.67
2022-11-27T15:56:14.793Z,58.25
2022-11-27T16:01:18.511Z,58.26
2022-11-27T16:06:22.318Z,58.40
2022-11-27T16:11:26.940Z,58.33
2022-11-27T16:16:30.512Z,58.17
2022-11-27T16:21:35.448Z,58.09
2022-11-27T16:26:39.083Z,58.14
2022-11-27T16:31:42.473Z,58.13
2022-11-27T16:36:46.518Z,58.35
2022-11-27T16:41:51.471Z,58.03
2022-11-27T16:46:56.417Z,58.48
2022-11-27T16:52:00.346Z,58.17
2022-11-27T16:57:05.004Z,57.98
2022-11-27T17:02:10.312Z,58.23
2022-11-27T17:07:13.954Z,58.49
2022-11-27T17:12:17.500Z,57.86
2022-11-27T17:17:21.123Z,58.10
2022-11-27T17:22:24.562Z,58.16
2022-11-27T17:27:29.013Z,58.11
2022-11-27T17:32:32.339Z,57.79
2022-11-27T17:37:35.683Z,57.51
2022-11-27T17:42:39.082Z,57.59
2022-11-27T17:47:42.535Z,57.77
2022-11-27T17:52:46.133Z,57.34
2022-11-27T17:57:49.494Z,57.40
2022-11-27T18:02:54.146Z,57.13
2022-11-27T18:07:59.434Z,57.02
2022-11-27T18:16:45.143Z,56.95
2022-11-27T18:21:48.665Z,56.99
2022-11-27T18:27:09.147Z,56.90
2022-11-27T18:32:14.945Z,56.83
2022-11-27T18:37:21.090Z,56.43
2022-11-27T18:42:25.559Z,56.35
2022-11-27T18:47:30.613Z,56.11
2022-11-27T18:52:34.147Z,56.53
2022-11-27T18:57:38.614Z,56.47
2022-11-27T19:02:42.279Z,56.12
2022-11-27T19:07:48.239Z,55.96
2022-11-27T19:12:51.634Z,55.77
2022-11-27T19:17:56.644Z,55.99
2022-11-27T19:23:00.231Z,55.79
2022-11-27T19:28:11.366Z,55.67
2022-11-27T19:33:14.657Z,55.78
2022-11-27T19:38:18.327Z,55.64
2022-11-27T19:43:23.311Z,55.27
2022-11-27T19:48:26.650Z,55.09
2022-11-27T19:53:30.231Z,55.05
2022-11-27T19:58:34.240Z,55.17
2022-11-27T20:03:38.541Z,55.17
2022-11-27T20:08:45.696Z,55.05
2022-11-27T20:13:49.705Z,55.05
2022-11-27T20:18:54.421Z,55.04
2022-11-27T20:24:00.213Z,54.89
2022-11-27T20:29:04.653Z,54.86
2022-11-27T20:34:15.261Z,54.55
2022-11-27T20:39:21.824Z,54.59
2022-11-27T20:44:26.802Z,54.91
2022-11-27T20:49:30.287Z,54.92
2022-11-27T20:54:36.310Z,54.95
2022-11-27T20:59:43.472Z,54.78
2022-11-27T21:04:47.589Z,54.79
2022-11-27T21:09:52.150Z,54.92
2022-11-27T21:14:55.663Z,55.02
2022-11-27T21:19:59.916Z,54.84
2022-11-27T21:25:03.511Z,54.50
2022-11-27T21:30:07.860Z,55.01
2022-11-27T21:35:11.340Z,55.03
2022-11-27T21:40:16.787Z,54.56
2022-11-27T21:45:20.095Z,54.60
2022-11-27T21:50:24.570Z,54.69
2022-11-27T21:55:30.443Z,54.92
2022-11-27T22:00:34.068Z,54.96
2022-11-27T22:05:37.535Z,54.83
2022-11-27T22:10:42.133Z,55.16
2022-11-27T22:15:45.846Z,55.12
2022-11-27T22:20:50.462Z,55.08
2022-11-27T22:25:53.805Z,55.61
2022-11-27T22:31:03.588Z,55.06
2022-11-27T22:36:28.782Z,55.42
2022-11-27T22:41:36.647Z,55.42
2022-11-27T22:46:42.819Z,55.19
2022-11-27T22:51:47.335Z,55.18
2022-11-27T22:56:51.857Z,55.45
2022-11-27T23:01:56.589Z,55.44
2022-11-27T23:07:01.098Z,55.14
2022-11-27T23:12:05.235Z,55.12
2022-11-27T23:17:08.809Z,55.21
2022-11-27T23:22:12.133Z,55.11
2022-11-27T23:27:15.470Z,55.51
2022-11-27T23:32:18.911Z,55.07
2022-11-27T23:37:22.189Z,55.43
2022-11-27T23:42:25.529Z,54.98
2022-11-27T23:47:28.902Z,55.07
2022-11-27T23:52:33.223Z,54.92
2022-11-27T23:57:36.473Z,54.85
